sensor_id;sensor_type;location;lat;lon;timestamp;P1;durP1;ratioP1;P2;durP2;ratioP2
74473;SDS011;62922;-6.168;106.796;2023-06-26T00:00:46;40.67;;;21.33;;
74473;SDS011;62922;-6.168;106.796;2023-06-26T00:03:13;31.77;;;21.05;;
74473;SDS011;62922;-6.168;106.796;2023-06-26T00:05:42;33.92;;;21.40;;
74473;SDS011;62922;-6.168;106.796;2023-06-26T00:08:11;33.22;;;22.17;;
74473;SDS011;62922;-6.168;106.796;2023-06-26T00:10:38;34.63;;;22.00;;
74473;SDS011;62922;-6.168;106.796;2023-06-26T00:13:07;32.72;;;21.10;;
74473;SDS011;62922;-6.168;106.796;2023-06-26T00:15:33;28.92;;;20.55;;
74473;SDS011;62922;-6.168;106.796;2023-06-26T00:17:59;36.15;;;21.15;;
74473;SDS011;62922;-6.168;106.796;2023-06-26T00:20:28;33.55;;;21.63;;
74473;SDS011;62922;-6.168;106.796;2023-06-26T00:22:55;33.28;;;21.48;;
74473;SDS011;62922;-6.168;106.796;2023-06-26T00:25:24;35.15;;;21.35;;
74473;SDS011;62922;-6.168;106.796;2023-06-26T00:27:50;37.60;;;21.55;;
74473;SDS011;62922;-6.168;106.796;2023-06-26T00:30:17;32.80;;;21.52;;
74473;SDS011;62922;-6.168;106.796;2023-06-26T00:32:43;34.83;;;21.90;;
74473;SDS011;62922;-6.168;106.796;2023-06-26T00:35:10;29.95;;;20.75;;
74473;SDS011;62922;-6.168;106.796;2023-06-26T00:37:36;39.10;;;21.42;;
74473;SDS011;62922;-6.168;106.796;2023-06-26T00:40:02;40.67;;;22.25;;
74473;SDS011;62922;-6.168;106.796;2023-06-26T00:42:30;30.67;;;19.95;;
74473;SDS011;62922;-6.168;106.796;2023-06-26T00:44:57;29.98;;;21.15;;
74473;SDS011;62922;-6.168;106.796;2023-06-26T00:47:23;38.17;;;21.75;;
74473;SDS011;62922;-6.168;106.796;2023-06-26T00:49:51;39.47;;;21.17;;
74473;SDS011;62922;-6.168;106.796;2023-06-26T00:52:17;30.30;;;20.05;;
74473;SDS011;62922;-6.168;106.796;2023-06-26T00:54:44;27.95;;;19.05;;
74473;SDS011;62922;-6.168;106.796;2023-06-26T00:57:11;29.02;;;18.85;;
74473;SDS011;62922;-6.168;106.796;2023-06-26T00:59:37;30.38;;;18.95;;
74473;SDS011;62922;-6.168;106.796;2023-06-26T01:02:04;31.20;;;19.95;;
74473;SDS011;62922;-6.168;106.796;2023-06-26T01:04:31;29.50;;;19.90;;
74473;SDS011;62922;-6.168;106.796;2023-06-26T01:06:58;29.17;;;21.55;;
74473;SDS011;62922;-6.168;106.796;2023-06-26T01:09:27;31.20;;;23.73;;
74473;SDS011;62922;-6.168;106.796;2023-06-26T01:11:53;39.05;;;26.08;;
74473;SDS011;62922;-6.168;106.796;2023-06-26T01:14:20;33.67;;;26.23;;
74473;SDS011;62922;-6.168;106.796;2023-06-26T01:16:46;63.03;;;29.80;;
74473;SDS011;62922;-6.168;106.796;2023-06-26T01:19:20;92.50;;;50.03;;
74473;SDS011;62922;-6.168;106.796;2023-06-26T01:21:51;389.15;;;206.50;;
74473;SDS011;62922;-6.168;106.796;2023-06-26T01:24:26;551.15;;;328.85;;
74473;SDS011;62922;-6.168;106.796;2023-06-26T01:26:59;516.55;;;317.45;;
74473;SDS011;62922;-6.168;106.796;2023-06-26T01:29:28;505.67;;;300.90;;
74473;SDS011;62922;-6.168;106.796;2023-06-26T01:31:56;479.45;;;287.45;;
74473;SDS011;62922;-6.168;106.796;2023-06-26T01:34:23;446.13;;;263.77;;
74473;SDS011;62922;-6.168;106.796;2023-06-26T01:36:50;442.60;;;258.10;;
74473;SDS011;62922;-6.168;106.796;2023-06-26T01:39:18;447.55;;;261.08;;
74473;SDS011;62922;-6.168;106.796;2023-06-26T01:41:45;447.25;;;256.00;;
74473;SDS011;62922;-6.168;106.796;2023-06-26T01:51:52;406.17;;;227.27;;
74473;SDS011;62922;-6.168;106.796;2023-06-26T01:54:26;380.38;;;213.05;;
74473;SDS011;62922;-6.168;106.796;2023-06-26T01:56:57;367.17;;;205.87;;
74473;SDS011;62922;-6.168;106.796;2023-06-26T01:59:25;363.83;;;200.75;;
74473;SDS011;62922;-6.168;106.796;2023-06-26T02:01:57;343.23;;;193.00;;
74473;SDS011;62922;-6.168;106.796;2023-06-26T02:04:23;332.48;;;181.18;;
74473;SDS011;62922;-6.168;106.796;2023-06-26T02:06:50;327.65;;;176.73;;
74473;SDS011;62922;-6.168;106.796;2023-06-26T02:09:16;318.13;;;167.93;;
74473;SDS011;62922;-6.168;106.796;2023-06-26T12:10:43;41.95;;;30.35;;
74473;SDS011;62922;-6.168;106.796;2023-06-26T12:13:13;36.90;;;30.33;;
74473;SDS011;62922;-6.168;106.796;2023-06-26T12:15:40;39.28;;;30.80;;
74473;SDS011;62922;-6.168;106.796;2023-06-26T12:18:11;39.65;;;32.00;;
74473;SDS011;62922;-6.168;106.796;2023-06-26T12:20:39;36.55;;;30.63;;
74473;SDS011;62922;-6.168;106.796;2023-06-26T12:23:13;39.38;;;30.48;;
74473;SDS011;62922;-6.168;106.796;2023-06-26T12:25:40;42.33;;;32.28;;
74473;SDS011;62922;-6.168;106.796;2023-06-26T12:28:14;45.22;;;34.25;;
74473;SDS011;62922;-6.168;106.796;2023-06-26T12:30:45;48.95;;;36.72;;
74473;SDS011;62922;-6.168;106.796;2023-06-26T12:33:12;50.38;;;35.72;;
74473;SDS011;62922;-6.168;106.796;2023-06-26T12:35:41;53.70;;;37.10;;
74473;SDS011;62922;-6.168;106.796;2023-06-26T12:38:11;56.13;;;37.78;;
74473;SDS011;62922;-6.168;106.796;2023-06-26T12:43:21;55.65;;;35.45;;
74473;SDS011;62922;-6.168;106.796;2023-06-26T12:45:53;48.78;;;35.10;;
74473;SDS011;62922;-6.168;106.796;2023-06-26T12:51:14;56.58;;;36.53;;
74473;SDS011;62922;-6.168;106.796;2023-06-26T12:53:42;46.13;;;36.20;;
74473;SDS011;62922;-6.168;106.796;2023-06-26T12:56:09;45.22;;;34.55;;
74473;SDS011;62922;-6.168;106.796;2023-06-26T12:58:36;47.05;;;35.08;;
74473;SDS011;62922;-6.168;106.796;2023-06-26T13:01:04;58.47;;;35.03;;
74473;SDS011;62922;-6.168;106.796;2023-06-26T13:03:42;46.15;;;32.63;;
74473;SDS011;62922;-6.168;106.796;2023-06-26T13:06:08;44.08;;;32.75;;
74473;SDS011;62922;-6.168;106.796;2023-06-26T13:08:35;48.03;;;31.60;;
74473;SDS011;62922;-6.168;106.796;2023-06-26T13:11:02;44.22;;;31.33;;
74473;SDS011;62922;-6.168;106.796;2023-06-26T13:13:28;41.28;;;30.30;;
74473;SDS011;62922;-6.168;106.796;2023-06-26T13:15:55;42.83;;;32.53;;
74473;SDS011;62922;-6.168;106.796;2023-06-26T13:18:21;46.13;;;34.28;;
74473;SDS011;62922;-6.168;106.796;2023-06-26T13:20:48;41.75;;;32.70;;
74473;SDS011;62922;-6.168;106.796;2023-06-26T13:23:14;46.58;;;34.00;;
74473;SDS011;62922;-6.168;106.796;2023-06-26T13:25:42;45.42;;;34.03;;
74473;SDS011;62922;-6.168;106.796;2023-06-26T13:28:08;49.67;;;36.17;;
74473;SDS011;62922;-6.168;106.796;2023-06-26T13:30:35;47.40;;;33.92;;
74473;SDS011;62922;-6.168;106.796;2023-06-26T13:33:01;41.38;;;31.65;;
74473;SDS011;62922;-6.168;106.796;2023-06-26T13:35:28;38.90;;;30.25;;
74473;SDS011;62922;-6.168;106.796;2023-06-26T13:37:54;42.42;;;33.28;;
74473;SDS011;62922;-6.168;106.796;2023-06-26T13:40:21;44.47;;;34.67;;
74473;SDS011;62922;-6.168;106.796;2023-06-26T13:42:47;46.00;;;33.88;;
74473;SDS011;62922;-6.168;106.796;2023-06-26T13:45:18;47.95;;;34.05;;
74473;SDS011;62922;-6.168;106.796;2023-06-26T13:47:45;40.65;;;32.33;;
74473;SDS011;62922;-6.168;106.796;2023-06-26T13:50:11;44.78;;;32.85;;
74473;SDS011;62922;-6.168;106.796;2023-06-26T13:52:37;45.13;;;31.17;;
74473;SDS011;62922;-6.168;106.796;2023-06-26T13:55:04;45.97;;;32.20;;
74473;SDS011;62922;-6.168;106.796;2023-06-26T13:57:31;47.65;;;32.38;;
74473;SDS011;62922;-6.168;106.796;2023-06-26T13:59:58;53.35;;;36.45;;
74473;SDS011;62922;-6.168;106.796;2023-06-26T14:02:24;61.55;;;36.85;;
74473;SDS011;62922;-6.168;106.796;2023-06-26T14:04:51;55.03;;;35.42;;
74473;SDS011;62922;-6.168;106.796;2023-06-26T14:07:18;55.00;;;36.28;;
74473;SDS011;62922;-6.168;106.796;2023-06-26T14:09:44;48.58;;;35.85;;
74473;SDS011;62922;-6.168;106.796;2023-06-26T14:12:10;50.40;;;34.58;;
74473;SDS011;62922;-6.168;106.796;2023-06-26T14:14:37;47.25;;;34.50;;
74473;SDS011;62922;-6.168;106.796;2023-06-26T14:17:07;51.65;;;34.60;;
74473;SDS011;62922;-6.168;106.796;2023-06-26T14:19:35;50.08;;;34.10;;
74473;SDS011;62922;-6.168;106.796;2023-06-26T14:22:02;50.40;;;34.30;;
74473;SDS011;62922;-6.168;106.796;2023-06-26T14:24:28;50.85;;;34.08;;
74473;SDS011;62922;-6.168;106.796;2023-06-26T14:26:55;46.13;;;34.00;;
74473;SDS011;62922;-6.168;106.796;2023-06-26T14:29:21;46.20;;;33.78;;
74473;SDS011;62922;-6.168;106.796;2023-06-26T14:31:48;44.38;;;31.83;;
74473;SDS011;62922;-6.168;106.796;2023-06-26T14:34:15;43.65;;;31.50;;
74473;SDS011;62922;-6.168;106.796;2023-06-26T14:36:41;45.28;;;31.73;;
74473;SDS011;62922;-6.168;106.796;2023-06-26T14:39:08;45.30;;;32.42;;
74473;SDS011;62922;-6.168;106.796;2023-06-26T14:41:35;41.05;;;30.30;;
74473;SDS011;62922;-6.168;106.796;2023-06-26T14:44:01;43.25;;;30.73;;
74473;SDS011;62922;-6.168;106.796;2023-06-26T14:46:28;43.97;;;30.85;;
74473;SDS011;62922;-6.168;106.796;2023-06-26T14:48:54;42.03;;;31.67;;
74473;SDS011;62922;-6.168;106.796;2023-06-26T14:51:21;41.83;;;30.58;;
74473;SDS011;62922;-6.168;106.796;2023-06-26T14:53:47;37.90;;;29.75;;
74473;SDS011;62922;-6.168;106.796;2023-06-26T14:56:16;36.38;;;29.92;;
74473;SDS011;62922;-6.168;106.796;2023-06-26T14:58:43;42.33;;;30.13;;
74473;SDS011;62922;-6.168;106.796;2023-06-26T15:01:09;41.10;;;31.35;;
74473;SDS011;62922;-6.168;106.796;2023-06-26T15:03:35;41.08;;;30.80;;
74473;SDS011;62922;-6.168;106.796;2023-06-26T15:06:02;42.22;;;31.30;;
74473;SDS011;62922;-6.168;106.796;2023-06-26T15:08:28;42.08;;;31.38;;
74473;SDS011;62922;-6.168;106.796;2023-06-26T15:10:55;46.42;;;31.73;;
74473;SDS011;62922;-6.168;106.796;2023-06-26T15:13:21;45.83;;;31.70;;
74473;SDS011;62922;-6.168;106.796;2023-06-26T15:15:48;42.45;;;30.65;;
74473;SDS011;62922;-6.168;106.796;2023-06-26T15:18:15;44.42;;;33.05;;
74473;SDS011;62922;-6.168;106.796;2023-06-26T15:20:41;44.05;;;31.83;;
74473;SDS011;62922;-6.168;106.796;2023-06-26T15:23:10;46.20;;;32.15;;
74473;SDS011;62922;-6.168;106.796;2023-06-26T15:25:36;43.72;;;33.67;;
74473;SDS011;62922;-6.168;106.796;2023-06-26T15:28:04;42.85;;;32.35;;
74473;SDS011;62922;-6.168;106.796;2023-06-26T15:30:31;46.28;;;32.72;;
74473;SDS011;62922;-6.168;106.796;2023-06-26T15:32:57;46.78;;;32.90;;
74473;SDS011;62922;-6.168;106.796;2023-06-26T15:35:26;41.20;;;31.92;;
74473;SDS011;62922;-6.168;106.796;2023-06-26T15:37:53;43.60;;;33.30;;
74473;SDS011;62922;-6.168;106.796;2023-06-26T15:40:20;42.63;;;31.88;;
74473;SDS011;62922;-6.168;106.796;2023-06-26T15:42:46;45.55;;;32.30;;
74473;SDS011;62922;-6.168;106.796;2023-06-26T15:45:14;41.60;;;31.60;;
74473;SDS011;62922;-6.168;106.796;2023-06-26T15:47:44;40.45;;;30.52;;
74473;SDS011;62922;-6.168;106.796;2023-06-26T15:50:10;39.97;;;30.10;;
74473;SDS011;62922;-6.168;106.796;2023-06-26T15:52:37;41.53;;;30.20;;
74473;SDS011;62922;-6.168;106.796;2023-06-26T15:55:06;42.03;;;30.02;;
74473;SDS011;62922;-6.168;106.796;2023-06-26T15:57:35;36.78;;;29.58;;
74473;SDS011;62922;-6.168;106.796;2023-06-26T16:00:02;42.25;;;29.45;;
74473;SDS011;62922;-6.168;106.796;2023-06-26T16:02:30;39.15;;;29.20;;
74473;SDS011;62922;-6.168;106.796;2023-06-26T16:04:58;37.47;;;28.63;;
74473;SDS011;62922;-6.168;106.796;2023-06-26T16:07:25;38.58;;;28.75;;
74473;SDS011;62922;-6.168;106.796;2023-06-26T16:09:55;38.72;;;29.55;;
74473;SDS011;62922;-6.168;106.796;2023-06-26T16:12:22;38.25;;;28.38;;
74473;SDS011;62922;-6.168;106.796;2023-06-26T16:14:49;37.35;;;28.90;;
74473;SDS011;62922;-6.168;106.796;2023-06-26T16:17:15;36.75;;;27.85;;
74473;SDS011;62922;-6.168;106.796;2023-06-26T16:19:41;40.42;;;28.20;;
74473;SDS011;62922;-6.168;106.796;2023-06-26T16:22:08;40.53;;;28.42;;
74473;SDS011;62922;-6.168;106.796;2023-06-26T16:24:34;41.33;;;28.35;;
74473;SDS011;62922;-6.168;106.796;2023-06-26T16:27:01;40.85;;;28.90;;
74473;SDS011;62922;-6.168;106.796;2023-06-26T16:29:27;39.72;;;28.27;;
74473;SDS011;62922;-6.168;106.796;2023-06-26T16:31:53;35.65;;;27.58;;
74473;SDS011;62922;-6.168;106.796;2023-06-26T16:34:22;37.33;;;29.17;;
74473;SDS011;62922;-6.168;106.796;2023-06-26T16:36:49;40.13;;;27.42;;
74473;SDS011;62922;-6.168;106.796;2023-06-26T16:39:16;41.08;;;27.33;;
74473;SDS011;62922;-6.168;106.796;2023-06-26T16:41:47;38.47;;;27.40;;
74473;SDS011;62922;-6.168;106.796;2023-06-26T16:44:20;36.45;;;27.30;;
74473;SDS011;62922;-6.168;106.796;2023-06-26T16:46:47;37.25;;;27.65;;
74473;SDS011;62922;-6.168;106.796;2023-06-26T16:49:13;38.03;;;28.15;;
74473;SDS011;62922;-6.168;106.796;2023-06-26T16:51:40;36.17;;;27.20;;
74473;SDS011;62922;-6.168;106.796;2023-06-26T16:54:06;44.20;;;27.52;;
74473;SDS011;62922;-6.168;106.796;2023-06-26T16:56:33;37.30;;;27.88;;
74473;SDS011;62922;-6.168;106.796;2023-06-26T16:58:59;34.10;;;26.02;;
74473;SDS011;62922;-6.168;106.796;2023-06-26T17:01:25;36.63;;;26.20;;
74473;SDS011;62922;-6.168;106.796;2023-06-26T17:03:52;36.17;;;26.17;;
74473;SDS011;62922;-6.168;106.796;2023-06-26T17:06:19;36.05;;;26.13;;
74473;SDS011;62922;-6.168;106.796;2023-06-26T17:08:45;37.38;;;26.63;;
74473;SDS011;62922;-6.168;106.796;2023-06-26T17:11:12;36.20;;;26.30;;
74473;SDS011;62922;-6.168;106.796;2023-06-26T17:13:38;41.05;;;26.10;;
74473;SDS011;62922;-6.168;106.796;2023-06-26T17:16:06;37.63;;;25.80;;
74473;SDS011;62922;-6.168;106.796;2023-06-26T17:18:32;35.97;;;26.65;;
74473;SDS011;62922;-6.168;106.796;2023-06-26T17:20:58;40.35;;;26.30;;
74473;SDS011;62922;-6.168;106.796;2023-06-26T17:23:25;38.25;;;25.48;;
74473;SDS011;62922;-6.168;106.796;2023-06-26T20:31:01;57.45;;;34.17;;
74473;SDS011;62922;-6.168;106.796;2023-06-26T20:33:27;49.72;;;33.17;;
74473;SDS011;62922;-6.168;106.796;2023-06-26T20:35:54;51.30;;;34.10;;
74473;SDS011;62922;-6.168;106.796;2023-06-26T20:38:20;46.17;;;32.78;;
74473;SDS011;62922;-6.168;106.796;2023-06-26T20:40:46;47.33;;;32.88;;
74473;SDS011;62922;-6.168;106.796;2023-06-26T20:43:13;48.13;;;34.17;;
74473;SDS011;62922;-6.168;106.796;2023-06-26T20:45:42;51.80;;;33.47;;
74473;SDS011;62922;-6.168;106.796;2023-06-26T20:48:09;51.20;;;34.90;;
74473;SDS011;62922;-6.168;106.796;2023-06-26T20:50:35;51.90;;;34.33;;
74473;SDS011;62922;-6.168;106.796;2023-06-26T20:53:02;50.30;;;34.83;;
74473;SDS011;62922;-6.168;106.796;2023-06-26T20:55:31;47.13;;;33.85;;
74473;SDS011;62922;-6.168;106.796;2023-06-26T20:57:58;47.45;;;35.22;;
74473;SDS011;62922;-6.168;106.796;2023-06-26T21:00:24;56.13;;;35.25;;
74473;SDS011;62922;-6.168;106.796;2023-06-26T21:02:50;52.38;;;35.70;;
74473;SDS011;62922;-6.168;106.796;2023-06-26T21:05:17;52.50;;;35.35;;
74473;SDS011;62922;-6.168;106.796;2023-06-26T21:07:45;60.13;;;36.22;;
74473;SDS011;62922;-6.168;106.796;2023-06-26T21:10:11;46.67;;;34.20;;
74473;SDS011;62922;-6.168;106.796;2023-06-26T21:12:38;55.67;;;35.35;;
74473;SDS011;62922;-6.168;106.796;2023-06-26T21:15:12;50.50;;;33.83;;
74473;SDS011;62922;-6.168;106.796;2023-06-26T21:17:38;52.20;;;34.10;;
74473;SDS011;62922;-6.168;106.796;2023-06-26T21:20:04;56.63;;;36.03;;
74473;SDS011;62922;-6.168;106.796;2023-06-26T21:22:37;49.20;;;33.95;;
74473;SDS011;62922;-6.168;106.796;2023-06-26T21:25:04;45.70;;;33.83;;
74473;SDS011;62922;-6.168;106.796;2023-06-26T21:27:30;51.35;;;33.90;;
74473;SDS011;62922;-6.168;106.796;2023-06-26T21:29:57;51.78;;;34.75;;
74473;SDS011;62922;-6.168;106.796;2023-06-26T21:32:23;51.33;;;35.13;;
74473;SDS011;62922;-6.168;106.796;2023-06-26T21:34:49;46.65;;;33.28;;
74473;SDS011;62922;-6.168;106.796;2023-06-26T21:37:16;52.28;;;33.42;;
74473;SDS011;62922;-6.168;106.796;2023-06-26T21:39:45;45.88;;;32.92;;
74473;SDS011;62922;-6.168;106.796;2023-06-26T21:42:11;47.88;;;33.10;;
74473;SDS011;62922;-6.168;106.796;2023-06-26T21:44:37;50.17;;;32.63;;
74473;SDS011;62922;-6.168;106.796;2023-06-26T21:47:04;48.80;;;32.03;;
74473;SDS011;62922;-6.168;106.796;2023-06-26T21:49:30;48.25;;;31.63;;
74473;SDS011;62922;-6.168;106.796;2023-06-26T21:51:56;46.90;;;31.50;;
74473;SDS011;62922;-6.168;106.796;2023-06-26T21:54:23;49.70;;;32.53;;
74473;SDS011;62922;-6.168;106.796;2023-06-26T21:56:49;49.22;;;32.53;;
74473;SDS011;62922;-6.168;106.796;2023-06-26T21:59:15;42.20;;;30.60;;
74473;SDS011;62922;-6.168;106.796;2023-06-26T22:01:42;43.88;;;31.08;;
74473;SDS011;62922;-6.168;106.796;2023-06-26T22:04:08;47.22;;;30.52;;
74473;SDS011;62922;-6.168;106.796;2023-06-26T22:06:35;47.00;;;30.55;;
74473;SDS011;62922;-6.168;106.796;2023-06-26T22:09:01;39.38;;;29.48;;
74473;SDS011;62922;-6.168;106.796;2023-06-26T22:11:30;42.47;;;28.70;;
74473;SDS011;62922;-6.168;106.796;2023-06-26T22:13:57;46.90;;;28.67;;
74473;SDS011;62922;-6.168;106.796;2023-06-26T22:16:23;44.90;;;28.85;;
74473;SDS011;62922;-6.168;106.796;2023-06-26T22:18:50;43.20;;;28.25;;
74473;SDS011;62922;-6.168;106.796;2023-06-26T22:21:16;38.33;;;28.30;;
74473;SDS011;62922;-6.168;106.796;2023-06-26T22:23:45;45.70;;;28.38;;
74473;SDS011;62922;-6.168;106.796;2023-06-26T22:26:12;40.67;;;29.10;;
74473;SDS011;62922;-6.168;106.796;2023-06-26T22:28:39;40.35;;;27.17;;
74473;SDS011;62922;-6.168;106.796;2023-06-26T22:31:05;43.75;;;27.13;;
74473;SDS011;62922;-6.168;106.796;2023-06-26T22:33:31;40.50;;;26.88;;
74473;SDS011;62922;-6.168;106.796;2023-06-26T22:35:58;36.95;;;27.63;;
74473;SDS011;62922;-6.168;106.796;2023-06-26T22:38:24;38.60;;;26.55;;
74473;SDS011;62922;-6.168;106.796;2023-06-26T22:40:50;37.92;;;26.77;;
74473;SDS011;62922;-6.168;106.796;2023-06-26T22:43:17;38.15;;;26.38;;
74473;SDS011;62922;-6.168;106.796;2023-06-26T22:45:43;38.33;;;26.42;;
74473;SDS011;62922;-6.168;106.796;2023-06-26T22:48:10;35.90;;;25.63;;
74473;SDS011;62922;-6.168;106.796;2023-06-26T22:50:36;42.70;;;26.65;;
74473;SDS011;62922;-6.168;106.796;2023-06-26T22:53:05;40.25;;;26.20;;
74473;SDS011;62922;-6.168;106.796;2023-06-26T22:55:33;41.47;;;26.80;;
74473;SDS011;62922;-6.168;106.796;2023-06-26T22:57:59;32.83;;;25.17;;
74473;SDS011;62922;-6.168;106.796;2023-06-26T23:00:25;44.85;;;26.23;;
74473;SDS011;62922;-6.168;106.796;2023-06-26T23:02:52;35.10;;;25.00;;
74473;SDS011;62922;-6.168;106.796;2023-06-26T23:05:18;39.03;;;24.65;;
74473;SDS011;62922;-6.168;106.796;2023-06-26T23:07:45;36.25;;;24.92;;
74473;SDS011;62922;-6.168;106.796;2023-06-26T23:10:11;43.20;;;25.92;;
74473;SDS011;62922;-6.168;106.796;2023-06-26T23:12:37;38.45;;;23.90;;
74473;SDS011;62922;-6.168;106.796;2023-06-26T23:15:07;43.33;;;24.80;;
74473;SDS011;62922;-6.168;106.796;2023-06-26T23:17:33;37.75;;;24.38;;
74473;SDS011;62922;-6.168;106.796;2023-06-26T23:20:00;41.95;;;25.20;;
74473;SDS011;62922;-6.168;106.796;2023-06-26T23:22:26;39.72;;;24.45;;
74473;SDS011;62922;-6.168;106.796;2023-06-26T23:24:53;40.10;;;24.65;;
74473;SDS011;62922;-6.168;106.796;2023-06-26T23:27:22;42.30;;;25.35;;
74473;SDS011;62922;-6.168;106.796;2023-06-26T23:29:48;39.22;;;25.55;;
74473;SDS011;62922;-6.168;106.796;2023-06-26T23:32:15;39.70;;;26.25;;
74473;SDS011;62922;-6.168;106.796;2023-06-26T23:34:42;44.30;;;27.00;;
74473;SDS011;62922;-6.168;106.796;2023-06-26T23:37:09;38.47;;;26.17;;
74473;SDS011;62922;-6.168;106.796;2023-06-26T23:39:40;40.63;;;27.27;;
74473;SDS011;62922;-6.168;106.796;2023-06-26T23:42:07;42.10;;;28.33;;
74473;SDS011;62922;-6.168;106.796;2023-06-26T23:44:35;46.72;;;27.90;;
74473;SDS011;62922;-6.168;106.796;2023-06-26T23:47:01;41.17;;;27.20;;
74473;SDS011;62922;-6.168;106.796;2023-06-26T23:49:31;50.17;;;28.75;;
74473;SDS011;62922;-6.168;106.796;2023-06-26T23:51:58;39.90;;;27.80;;
74473;SDS011;62922;-6.168;106.796;2023-06-26T23:54:28;46.60;;;28.63;;
74473;SDS011;62922;-6.168;106.796;2023-06-26T23:56:56;45.75;;;28.42;;
74473;SDS011;62922;-6.168;106.796;2023-06-26T23:59:22;43.45;;;27.88;;
